sensor_id;sensor_type;location;lat;lon;timestamp;P1;durP1;ratioP1;P2;durP2;ratioP2
31390;SDS011;18022;45.492;11.548;2023-07-29T00:01:43;4.97;;;4.00;;
31390;SDS011;18022;45.492;11.548;2023-07-29T00:04:10;5.05;;;3.65;;
31390;SDS011;18022;45.492;11.548;2023-07-29T00:06:36;5.53;;;4.05;;
31390;SDS011;18022;45.492;11.548;2023-07-29T00:09:02;8.18;;;4.25;;
31390;SDS011;18022;45.492;11.548;2023-07-29T00:11:28;5.75;;;3.53;;
31390;SDS011;18022;45.492;11.548;2023-07-29T00:13:54;6.63;;;3.45;;
31390;SDS011;18022;45.492;11.548;2023-07-29T00:16:19;6.65;;;3.83;;
31390;SDS011;18022;45.492;11.548;2023-07-29T00:18:48;6.63;;;3.67;;
31390;SDS011;18022;45.492;11.548;2023-07-29T00:21:14;6.55;;;3.70;;
31390;SDS011;18022;45.492;11.548;2023-07-29T00:23:40;6.10;;;3.65;;
31390;SDS011;18022;45.492;11.548;2023-07-29T00:26:06;6.05;;;4.15;;
31390;SDS011;18022;45.492;11.548;2023-07-29T00:28:31;6.47;;;4.22;;
31390;SDS011;18022;45.492;11.548;2023-07-29T00:30:57;5.85;;;4.00;;
31390;SDS011;18022;45.492;11.548;2023-07-29T00:33:23;3.92;;;3.38;;
31390;SDS011;18022;45.492;11.548;2023-07-29T00:35:48;5.25;;;3.50;;
31390;SDS011;18022;45.492;11.548;2023-07-29T00:38:14;4.90;;;3.53;;
31390;SDS011;18022;45.492;11.548;2023-07-29T00:40:40;3.83;;;3.33;;
31390;SDS011;18022;45.492;11.548;2023-07-29T00:43:05;7.07;;;3.47;;
31390;SDS011;18022;45.492;11.548;2023-07-29T00:45:31;5.07;;;3.28;;
31390;SDS011;18022;45.492;11.548;2023-07-29T00:47:58;9.82;;;3.83;;
31390;SDS011;18022;45.492;11.548;2023-07-29T00:50:28;4.35;;;3.92;;
31390;SDS011;18022;45.492;11.548;2023-07-29T00:52:55;5.68;;;4.13;;
31390;SDS011;18022;45.492;11.548;2023-07-29T00:55:22;3.83;;;3.33;;
31390;SDS011;18022;45.492;11.548;2023-07-29T00:57:48;5.95;;;3.85;;
31390;SDS011;18022;45.492;11.548;2023-07-29T01:00:16;6.28;;;3.80;;
31390;SDS011;18022;45.492;11.548;2023-07-29T01:02:42;5.47;;;3.90;;
31390;SDS011;18022;45.492;11.548;2023-07-29T01:05:08;5.03;;;3.85;;
31390;SDS011;18022;45.492;11.548;2023-07-29T01:07:47;6.30;;;4.25;;
31390;SDS011;18022;45.492;11.548;2023-07-29T01:13:21;4.07;;;3.60;;
31390;SDS011;18022;45.492;11.548;2023-07-29T01:18:57;7.80;;;3.90;;
31390;SDS011;18022;45.492;11.548;2023-07-29T01:21:27;7.03;;;3.78;;
31390;SDS011;18022;45.492;11.548;2023-07-29T01:23:57;6.80;;;4.13;;
31390;SDS011;18022;45.492;11.548;2023-07-29T01:26:24;6.00;;;4.07;;
31390;SDS011;18022;45.492;11.548;2023-07-29T01:28:50;5.72;;;3.80;;
31390;SDS011;18022;45.492;11.548;2023-07-29T01:31:34;5.50;;;3.85;;
31390;SDS011;18022;45.492;11.548;2023-07-29T01:34:20;6.95;;;3.92;;
31390;SDS011;18022;45.492;11.548;2023-07-29T01:36:54;6.87;;;3.97;;
31390;SDS011;18022;45.492;11.548;2023-07-29T01:39:24;7.93;;;4.10;;
31390;SDS011;18022;45.492;11.548;2023-07-29T01:41:54;7.75;;;3.72;;
31390;SDS011;18022;45.492;11.548;2023-07-29T01:44:20;7.68;;;3.70;;
31390;SDS011;18022;45.492;11.548;2023-07-29T01:46:46;7.40;;;4.00;;
31390;SDS011;18022;45.492;11.548;2023-07-29T01:49:12;4.30;;;3.90;;
31390;SDS011;18022;45.492;11.548;2023-07-29T01:51:38;6.30;;;3.88;;
31390;SDS011;18022;45.492;11.548;2023-07-29T01:54:03;6.80;;;4.13;;
31390;SDS011;18022;45.492;11.548;2023-07-29T01:56:29;8.93;;;3.90;;
31390;SDS011;18022;45.492;11.548;2023-07-29T01:58:55;4.55;;;3.85;;
31390;SDS011;18022;45.492;11.548;2023-07-29T02:01:21;5.40;;;4.25;;
31390;SDS011;18022;45.492;11.548;2023-07-29T02:03:46;7.43;;;4.30;;
31390;SDS011;18022;45.492;11.548;2023-07-29T02:06:18;6.30;;;3.80;;
31390;SDS011;18022;45.492;11.548;2023-07-29T02:08:44;5.85;;;3.55;;
31390;SDS011;18022;45.492;11.548;2023-07-29T02:11:09;8.18;;;3.88;;
31390;SDS011;18022;45.492;11.548;2023-07-29T02:13:35;5.13;;;3.95;;
31390;SDS011;18022;45.492;11.548;2023-07-29T02:16:01;4.72;;;3.90;;
31390;SDS011;18022;45.492;11.548;2023-07-29T02:18:26;4.43;;;3.60;;
31390;SDS011;18022;45.492;11.548;2023-07-29T02:20:52;7.53;;;4.63;;
31390;SDS011;18022;45.492;11.548;2023-07-29T02:23:18;10.23;;;4.35;;
31390;SDS011;18022;45.492;11.548;2023-07-29T02:25:44;7.20;;;4.13;;
31390;SDS011;18022;45.492;11.548;2023-07-29T02:28:10;5.63;;;4.55;;
31390;SDS011;18022;45.492;11.548;2023-07-29T02:30:36;4.63;;;4.10;;
31390;SDS011;18022;45.492;11.548;2023-07-29T02:33:02;5.60;;;4.30;;
31390;SDS011;18022;45.492;11.548;2023-07-29T02:35:28;6.78;;;4.40;;
31390;SDS011;18022;45.492;11.548;2023-07-29T02:37:53;5.07;;;4.28;;
31390;SDS011;18022;45.492;11.548;2023-07-29T02:40:19;4.28;;;3.88;;
31390;SDS011;18022;45.492;11.548;2023-07-29T02:42:46;5.65;;;4.28;;
31390;SDS011;18022;45.492;11.548;2023-07-29T02:45:11;8.02;;;4.30;;
31390;SDS011;18022;45.492;11.548;2023-07-29T02:47:37;5.25;;;4.05;;
31390;SDS011;18022;45.492;11.548;2023-07-29T02:50:03;5.10;;;3.85;;
31390;SDS011;18022;45.492;11.548;2023-07-29T02:52:29;5.05;;;3.75;;
31390;SDS011;18022;45.492;11.548;2023-07-29T02:54:55;4.22;;;3.50;;
31390;SDS011;18022;45.492;11.548;2023-07-29T02:57:21;4.90;;;3.78;;
31390;SDS011;18022;45.492;11.548;2023-07-29T02:59:46;5.97;;;4.05;;
31390;SDS011;18022;45.492;11.548;2023-07-29T03:02:12;4.80;;;3.75;;
31390;SDS011;18022;45.492;11.548;2023-07-29T03:04:38;4.18;;;3.65;;
31390;SDS011;18022;45.492;11.548;2023-07-29T03:07:03;6.70;;;4.10;;
31390;SDS011;18022;45.492;11.548;2023-07-29T03:09:29;5.55;;;3.83;;
31390;SDS011;18022;45.492;11.548;2023-07-29T03:11:55;7.05;;;4.15;;
31390;SDS011;18022;45.492;11.548;2023-07-29T03:14:21;5.93;;;4.60;;
31390;SDS011;18022;45.492;11.548;2023-07-29T03:16:47;5.93;;;3.92;;
31390;SDS011;18022;45.492;11.548;2023-07-29T03:19:13;6.22;;;4.07;;
31390;SDS011;18022;45.492;11.548;2023-07-29T03:21:38;5.88;;;4.00;;
31390;SDS011;18022;45.492;11.548;2023-07-29T03:24:04;5.50;;;4.50;;
31390;SDS011;18022;45.492;11.548;2023-07-29T03:26:31;4.65;;;3.85;;
31390;SDS011;18022;45.492;11.548;2023-07-29T03:28:57;7.18;;;4.10;;
31390;SDS011;18022;45.492;11.548;2023-07-29T03:31:23;5.82;;;3.70;;
31390;SDS011;18022;45.492;11.548;2023-07-29T03:33:48;5.20;;;4.00;;
31390;SDS011;18022;45.492;11.548;2023-07-29T03:36:14;7.60;;;4.13;;
31390;SDS011;18022;45.492;11.548;2023-07-29T03:38:40;4.45;;;3.70;;
31390;SDS011;18022;45.492;11.548;2023-07-29T03:41:09;7.13;;;4.10;;
31390;SDS011;18022;45.492;11.548;2023-07-29T03:43:35;6.38;;;4.40;;
31390;SDS011;18022;45.492;11.548;2023-07-29T03:46:01;5.22;;;4.15;;
31390;SDS011;18022;45.492;11.548;2023-07-29T03:48:26;5.35;;;4.30;;
31390;SDS011;18022;45.492;11.548;2023-07-29T03:50:52;6.13;;;4.32;;
31390;SDS011;18022;45.492;11.548;2023-07-29T03:53:19;5.72;;;4.30;;
31390;SDS011;18022;45.492;11.548;2023-07-29T03:55:45;5.38;;;4.10;;
31390;SDS011;18022;45.492;11.548;2023-07-29T03:58:11;8.73;;;4.43;;
31390;SDS011;18022;45.492;11.548;2023-07-29T04:00:37;4.53;;;3.67;;
31390;SDS011;18022;45.492;11.548;2023-07-29T04:03:03;4.70;;;3.78;;
31390;SDS011;18022;45.492;11.548;2023-07-29T04:05:29;4.72;;;3.90;;
31390;SDS011;18022;45.492;11.548;2023-07-29T04:07:55;5.93;;;3.70;;
31390;SDS011;18022;45.492;11.548;2023-07-29T04:10:20;8.57;;;4.50;;
31390;SDS011;18022;45.492;11.548;2023-07-29T04:12:46;4.07;;;3.58;;
31390;SDS011;18022;45.492;11.548;2023-07-29T04:15:12;4.57;;;4.13;;
31390;SDS011;18022;45.492;11.548;2023-07-29T04:17:38;4.88;;;3.60;;
31390;SDS011;18022;45.492;11.548;2023-07-29T04:20:03;4.38;;;3.97;;
31390;SDS011;18022;45.492;11.548;2023-07-29T04:22:30;4.35;;;3.90;;
31390;SDS011;18022;45.492;11.548;2023-07-29T04:24:55;5.00;;;4.18;;
31390;SDS011;18022;45.492;11.548;2023-07-29T04:27:21;4.20;;;3.70;;
31390;SDS011;18022;45.492;11.548;2023-07-29T04:29:47;4.10;;;3.70;;
31390;SDS011;18022;45.492;11.548;2023-07-29T04:32:12;3.60;;;3.30;;
31390;SDS011;18022;45.492;11.548;2023-07-29T04:34:38;6.40;;;3.78;;
31390;SDS011;18022;45.492;11.548;2023-07-29T04:37:04;5.43;;;4.03;;
31390;SDS011;18022;45.492;11.548;2023-07-29T04:39:30;11.50;;;4.20;;
31390;SDS011;18022;45.492;11.548;2023-07-29T04:41:55;4.75;;;4.05;;
31390;SDS011;18022;45.492;11.548;2023-07-29T04:44:22;11.88;;;4.40;;
31390;SDS011;18022;45.492;11.548;2023-07-29T04:46:48;7.72;;;3.95;;
31390;SDS011;18022;45.492;11.548;2023-07-29T04:49:13;3.55;;;3.25;;
31390;SDS011;18022;45.492;11.548;2023-07-29T04:51:39;3.95;;;3.50;;
31390;SDS011;18022;45.492;11.548;2023-07-29T04:54:05;4.65;;;3.75;;
31390;SDS011;18022;45.492;11.548;2023-07-29T04:56:30;3.65;;;3.35;;
31390;SDS011;18022;45.492;11.548;2023-07-29T04:58:56;6.32;;;3.67;;
31390;SDS011;18022;45.492;11.548;2023-07-29T05:01:22;4.18;;;3.78;;
31390;SDS011;18022;45.492;11.548;2023-07-29T05:03:47;5.28;;;3.85;;
31390;SDS011;18022;45.492;11.548;2023-07-29T05:06:13;6.18;;;3.35;;
31390;SDS011;18022;45.492;11.548;2023-07-29T05:08:39;4.93;;;3.78;;
31390;SDS011;18022;45.492;11.548;2023-07-29T05:11:04;4.13;;;3.80;;
31390;SDS011;18022;45.492;11.548;2023-07-29T05:13:30;4.97;;;3.78;;
31390;SDS011;18022;45.492;11.548;2023-07-29T05:15:56;8.77;;;3.83;;
31390;SDS011;18022;45.492;11.548;2023-07-29T05:18:21;3.75;;;3.22;;
31390;SDS011;18022;45.492;11.548;2023-07-29T05:20:47;6.55;;;3.78;;
31390;SDS011;18022;45.492;11.548;2023-07-29T05:23:13;4.25;;;3.53;;
31390;SDS011;18022;45.492;11.548;2023-07-29T05:25:39;5.60;;;3.65;;
31390;SDS011;18022;45.492;11.548;2023-07-29T05:28:04;6.18;;;3.63;;
31390;SDS011;18022;45.492;11.548;2023-07-29T05:30:30;4.03;;;3.63;;
31390;SDS011;18022;45.492;11.548;2023-07-29T05:33:02;4.32;;;3.97;;
31390;SDS011;18022;45.492;11.548;2023-07-29T05:35:28;4.75;;;3.72;;
31390;SDS011;18022;45.492;11.548;2023-07-29T05:37:54;7.72;;;3.85;;
31390;SDS011;18022;45.492;11.548;2023-07-29T05:40:19;7.32;;;4.00;;
31390;SDS011;18022;45.492;11.548;2023-07-29T05:42:45;4.03;;;3.50;;
31390;SDS011;18022;45.492;11.548;2023-07-29T05:45:12;3.55;;;3.25;;
31390;SDS011;18022;45.492;11.548;2023-07-29T05:47:38;4.05;;;3.65;;
31390;SDS011;18022;45.492;11.548;2023-07-29T05:50:04;4.43;;;3.75;;
31390;SDS011;18022;45.492;11.548;2023-07-29T05:52:30;5.03;;;3.60;;
31390;SDS011;18022;45.492;11.548;2023-07-29T05:54:56;5.95;;;3.85;;
31390;SDS011;18022;45.492;11.548;2023-07-29T05:57:22;3.83;;;3.40;;
31390;SDS011;18022;45.492;11.548;2023-07-29T05:59:48;5.35;;;3.92;;
31390;SDS011;18022;45.492;11.548;2023-07-29T06:02:14;6.53;;;3.70;;
31390;SDS011;18022;45.492;11.548;2023-07-29T06:04:39;7.97;;;3.97;;
31390;SDS011;18022;45.492;11.548;2023-07-29T06:07:05;3.78;;;3.47;;
31390;SDS011;18022;45.492;11.548;2023-07-29T06:09:31;4.55;;;3.75;;
31390;SDS011;18022;45.492;11.548;2023-07-29T06:11:57;4.63;;;3.92;;
31390;SDS011;18022;45.492;11.548;2023-07-29T06:14:23;5.45;;;3.58;;
31390;SDS011;18022;45.492;11.548;2023-07-29T06:16:48;6.13;;;4.07;;
31390;SDS011;18022;45.492;11.548;2023-07-29T06:19:14;3.63;;;3.33;;
31390;SDS011;18022;45.492;11.548;2023-07-29T06:21:40;3.67;;;3.38;;
31390;SDS011;18022;45.492;11.548;2023-07-29T06:24:05;6.72;;;3.88;;
31390;SDS011;18022;45.492;11.548;2023-07-29T06:26:31;3.25;;;2.95;;
31390;SDS011;18022;45.492;11.548;2023-07-29T06:28:57;3.80;;;3.22;;
31390;SDS011;18022;45.492;11.548;2023-07-29T06:31:22;8.27;;;3.50;;
31390;SDS011;18022;45.492;11.548;2023-07-29T06:33:48;3.63;;;3.33;;
31390;SDS011;18022;45.492;11.548;2023-07-29T06:36:14;3.95;;;3.55;;
31390;SDS011;18022;45.492;11.548;2023-07-29T06:38:39;5.18;;;3.40;;
31390;SDS011;18022;45.492;11.548;2023-07-29T06:41:06;4.05;;;3.47;;
31390;SDS011;18022;45.492;11.548;2023-07-29T06:43:31;4.43;;;3.65;;
31390;SDS011;18022;45.492;11.548;2023-07-29T06:45:57;6.35;;;3.90;;
31390;SDS011;18022;45.492;11.548;2023-07-29T06:48:23;5.10;;;3.60;;
31390;SDS011;18022;45.492;11.548;2023-07-29T06:50:49;4.13;;;3.70;;
31390;SDS011;18022;45.492;11.548;2023-07-29T06:53:15;5.13;;;3.83;;
31390;SDS011;18022;45.492;11.548;2023-07-29T06:55:41;4.18;;;3.60;;
31390;SDS011;18022;45.492;11.548;2023-07-29T06:58:07;5.22;;;4.05;;
31390;SDS011;18022;45.492;11.548;2023-07-29T07:00:34;9.57;;;4.10;;
31390;SDS011;18022;45.492;11.548;2023-07-29T07:02:59;4.70;;;3.65;;
31390;SDS011;18022;45.492;11.548;2023-07-29T07:05:25;3.83;;;3.53;;
31390;SDS011;18022;45.492;11.548;2023-07-29T07:07:51;5.50;;;4.05;;
31390;SDS011;18022;45.492;11.548;2023-07-29T07:10:16;6.50;;;3.92;;
31390;SDS011;18022;45.492;11.548;2023-07-29T07:12:42;6.32;;;4.00;;
31390;SDS011;18022;45.492;11.548;2023-07-29T07:15:08;5.95;;;4.13;;
31390;SDS011;18022;45.492;11.548;2023-07-29T07:17:34;5.78;;;4.22;;
31390;SDS011;18022;45.492;11.548;2023-07-29T07:19:59;5.30;;;3.95;;
31390;SDS011;18022;45.492;11.548;2023-07-29T07:22:25;5.18;;;4.18;;
31390;SDS011;18022;45.492;11.548;2023-07-29T07:24:51;4.93;;;3.60;;
31390;SDS011;18022;45.492;11.548;2023-07-29T07:27:16;7.95;;;4.47;;
31390;SDS011;18022;45.492;11.548;2023-07-29T07:29:42;5.50;;;3.80;;
31390;SDS011;18022;45.492;11.548;2023-07-29T07:32:08;5.20;;;3.78;;
31390;SDS011;18022;45.492;11.548;2023-07-29T07:34:33;8.93;;;4.30;;
31390;SDS011;18022;45.492;11.548;2023-07-29T07:36:59;8.57;;;4.93;;
31390;SDS011;18022;45.492;11.548;2023-07-29T07:39:25;7.22;;;4.43;;
31390;SDS011;18022;45.492;11.548;2023-07-29T07:41:51;5.57;;;3.88;;
31390;SDS011;18022;45.492;11.548;2023-07-29T07:44:17;6.38;;;4.25;;
31390;SDS011;18022;45.492;11.548;2023-07-29T07:46:44;7.55;;;3.78;;
31390;SDS011;18022;45.492;11.548;2023-07-29T07:49:10;7.20;;;4.05;;
31390;SDS011;18022;45.492;11.548;2023-07-29T07:51:37;5.40;;;3.72;;
31390;SDS011;18022;45.492;11.548;2023-07-29T07:54:03;5.15;;;3.70;;
31390;SDS011;18022;45.492;11.548;2023-07-29T07:56:29;5.47;;;3.95;;
31390;SDS011;18022;45.492;11.548;2023-07-29T07:58:55;8.73;;;4.35;;
31390;SDS011;18022;45.492;11.548;2023-07-29T08:01:20;5.88;;;4.03;;
31390;SDS011;18022;45.492;11.548;2023-07-29T08:03:46;6.68;;;4.15;;
31390;SDS011;18022;45.492;11.548;2023-07-29T08:06:12;3.78;;;3.45;;
31390;SDS011;18022;45.492;11.548;2023-07-29T08:08:37;7.38;;;3.90;;
31390;SDS011;18022;45.492;11.548;2023-07-29T08:11:03;7.43;;;4.47;;
31390;SDS011;18022;45.492;11.548;2023-07-29T08:13:29;5.28;;;4.07;;
31390;SDS011;18022;45.492;11.548;2023-07-29T08:15:55;7.88;;;4.70;;
31390;SDS011;18022;45.492;11.548;2023-07-29T08:18:20;6.47;;;3.90;;
31390;SDS011;18022;45.492;11.548;2023-07-29T08:20:53;13.73;;;4.32;;
31390;SDS011;18022;45.492;11.548;2023-07-29T08:23:21;9.68;;;3.92;;
31390;SDS011;18022;45.492;11.548;2023-07-29T08:25:53;6.43;;;3.90;;
31390;SDS011;18022;45.492;11.548;2023-07-29T08:28:21;8.15;;;4.05;;
31390;SDS011;18022;45.492;11.548;2023-07-29T08:30:47;4.53;;;4.03;;
31390;SDS011;18022;45.492;11.548;2023-07-29T08:33:13;7.10;;;4.55;;
31390;SDS011;18022;45.492;11.548;2023-07-29T08:35:39;4.97;;;4.47;;
31390;SDS011;18022;45.492;11.548;2023-07-29T08:38:05;6.97;;;4.72;;
31390;SDS011;18022;45.492;11.548;2023-07-29T08:40:31;9.00;;;5.10;;
31390;SDS011;18022;45.492;11.548;2023-07-29T08:42:59;7.10;;;4.70;;
31390;SDS011;18022;45.492;11.548;2023-07-29T08:45:29;6.82;;;4.53;;
31390;SDS011;18022;45.492;11.548;2023-07-29T08:47:59;12.07;;;5.32;;
31390;SDS011;18022;45.492;11.548;2023-07-29T08:50:29;9.18;;;4.68;;
31390;SDS011;18022;45.492;11.548;2023-07-29T08:55:22;9.65;;;3.63;;
31390;SDS011;18022;45.492;11.548;2023-07-29T08:57:47;7.82;;;4.07;;
31390;SDS011;18022;45.492;11.548;2023-07-29T09:00:13;6.75;;;3.95;;
31390;SDS011;18022;45.492;11.548;2023-07-29T09:02:40;7.00;;;4.13;;
31390;SDS011;18022;45.492;11.548;2023-07-29T09:05:05;3.53;;;3.13;;
31390;SDS011;18022;45.492;11.548;2023-07-29T09:07:31;7.20;;;3.90;;
31390;SDS011;18022;45.492;11.548;2023-07-29T09:09:59;5.78;;;3.85;;
31390;SDS011;18022;45.492;11.548;2023-07-29T09:12:24;8.05;;;3.42;;
31390;SDS011;18022;45.492;11.548;2023-07-29T09:14:53;3.92;;;3.47;;
31390;SDS011;18022;45.492;11.548;2023-07-29T09:17:21;10.18;;;3.63;;
31390;SDS011;18022;45.492;11.548;2023-07-29T09:19:48;7.10;;;3.65;;
31390;SDS011;18022;45.492;11.548;2023-07-29T09:22:18;6.00;;;4.25;;
31390;SDS011;18022;45.492;11.548;2023-07-29T09:24:45;7.20;;;3.70;;
31390;SDS011;18022;45.492;11.548;2023-07-29T09:27:27;7.10;;;3.80;;
31390;SDS011;18022;45.492;11.548;2023-07-29T09:29:56;6.50;;;3.67;;
31390;SDS011;18022;45.492;11.548;2023-07-29T09:32:23;5.30;;;3.97;;
31390;SDS011;18022;45.492;11.548;2023-07-29T09:34:51;6.40;;;3.63;;
31390;SDS011;18022;45.492;11.548;2023-07-29T09:37:20;6.22;;;3.22;;
31390;SDS011;18022;45.492;11.548;2023-07-29T09:39:47;9.13;;;3.58;;
31390;SDS011;18022;45.492;11.548;2023-07-29T09:42:20;9.50;;;3.38;;
31390;SDS011;18022;45.492;11.548;2023-07-29T09:44:48;10.15;;;3.50;;
31390;SDS011;18022;45.492;11.548;2023-07-29T09:47:24;5.43;;;3.75;;
31390;SDS011;18022;45.492;11.548;2023-07-29T09:49:51;6.43;;;3.10;;
31390;SDS011;18022;45.492;11.548;2023-07-29T09:52:18;7.03;;;3.90;;
31390;SDS011;18022;45.492;11.548;2023-07-29T09:54:45;5.53;;;3.05;;
31390;SDS011;18022;45.492;11.548;2023-07-29T09:57:15;8.25;;;3.25;;
31390;SDS011;18022;45.492;11.548;2023-07-29T09:59:43;5.78;;;3.20;;
31390;SDS011;18022;45.492;11.548;2023-07-29T10:02:18;3.47;;;3.10;;
31390;SDS011;18022;45.492;11.548;2023-07-29T10:04:45;6.30;;;3.67;;
31390;SDS011;18022;45.492;11.548;2023-07-29T10:07:11;11.35;;;3.38;;
31390;SDS011;18022;45.492;11.548;2023-07-29T10:09:38;7.97;;;3.60;;
31390;SDS011;18022;45.492;11.548;2023-07-29T10:12:07;4.60;;;3.45;;
31390;SDS011;18022;45.492;11.548;2023-07-29T10:14:36;3.88;;;3.00;;
31390;SDS011;18022;45.492;11.548;2023-07-29T10:17:04;4.50;;;3.20;;
31390;SDS011;18022;45.492;11.548;2023-07-29T10:19:31;5.35;;;3.47;;
31390;SDS011;18022;45.492;11.548;2023-07-29T10:21:59;7.63;;;3.40;;
31390;SDS011;18022;45.492;11.548;2023-07-29T10:24:30;4.47;;;2.95;;
31390;SDS011;18022;45.492;11.548;2023-07-29T10:26:58;5.50;;;3.10;;
31390;SDS011;18022;45.492;11.548;2023-07-29T10:29:28;4.50;;;3.40;;
31390;SDS011;18022;45.492;11.548;2023-07-29T10:31:57;6.70;;;3.30;;
31390;SDS011;18022;45.492;11.548;2023-07-29T10:34:27;5.30;;;3.30;;
31390;SDS011;18022;45.492;11.548;2023-07-29T10:36:54;5.15;;;2.92;;
31390;SDS011;18022;45.492;11.548;2023-07-29T10:39:20;3.20;;;2.72;;
31390;SDS011;18022;45.492;11.548;2023-07-29T10:41:56;5.28;;;3.17;;
31390;SDS011;18022;45.492;11.548;2023-07-29T10:47:22;6.65;;;3.10;;
31390;SDS011;18022;45.492;11.548;2023-07-29T10:49:52;3.85;;;3.15;;
31390;SDS011;18022;45.492;11.548;2023-07-29T10:55:00;6.30;;;3.15;;
31390;SDS011;18022;45.492;11.548;2023-07-29T10:57:33;7.53;;;2.88;;
31390;SDS011;18022;45.492;11.548;2023-07-29T11:00:00;5.00;;;3.13;;
31390;SDS011;18022;45.492;11.548;2023-07-29T11:02:33;4.00;;;3.30;;
31390;SDS011;18022;45.492;11.548;2023-07-29T11:05:07;6.28;;;2.80;;
31390;SDS011;18022;45.492;11.548;2023-07-29T11:07:43;4.65;;;2.92;;
31390;SDS011;18022;45.492;11.548;2023-07-29T11:12:45;3.58;;;2.95;;
31390;SDS011;18022;45.492;11.548;2023-07-29T11:15:23;3.35;;;2.83;;
31390;SDS011;18022;45.492;11.548;2023-07-29T11:17:52;5.45;;;2.60;;
31390;SDS011;18022;45.492;11.548;2023-07-29T11:20:29;3.97;;;3.00;;
31390;SDS011;18022;45.492;11.548;2023-07-29T11:22:57;3.85;;;3.08;;
31390;SDS011;18022;45.492;11.548;2023-07-29T11:25:25;7.55;;;3.42;;
31390;SDS011;18022;45.492;11.548;2023-07-29T11:27:54;4.25;;;3.38;;
31390;SDS011;18022;45.492;11.548;2023-07-29T11:30:21;3.92;;;2.83;;
31390;SDS011;18022;45.492;11.548;2023-07-29T11:32:48;5.47;;;3.13;;
31390;SDS011;18022;45.492;11.548;2023-07-29T11:35:18;5.95;;;2.92;;
31390;SDS011;18022;45.492;11.548;2023-07-29T11:37:44;7.75;;;2.85;;
31390;SDS011;18022;45.492;11.548;2023-07-29T11:40:19;3.55;;;3.10;;
31390;SDS011;18022;45.492;11.548;2023-07-29T11:42:46;3.72;;;2.85;;
31390;SDS011;18022;45.492;11.548;2023-07-29T11:45:13;3.95;;;2.72;;
31390;SDS011;18022;45.492;11.548;2023-07-29T11:47:39;5.97;;;3.10;;
31390;SDS011;18022;45.492;11.548;2023-07-29T11:50:09;4.60;;;2.83;;
31390;SDS011;18022;45.492;11.548;2023-07-29T11:52:36;5.63;;;2.72;;
31390;SDS011;18022;45.492;11.548;2023-07-29T11:55:03;7.22;;;2.90;;
31390;SDS011;18022;45.492;11.548;2023-07-29T11:57:30;6.65;;;3.20;;
31390;SDS011;18022;45.492;11.548;2023-07-29T11:59:58;5.32;;;3.13;;
31390;SDS011;18022;45.492;11.548;2023-07-29T12:02:24;5.75;;;3.00;;
31390;SDS011;18022;45.492;11.548;2023-07-29T12:04:51;4.23;;;2.93;;
31390;SDS011;18022;45.492;11.548;2023-07-29T12:07:18;4.28;;;3.10;;
31390;SDS011;18022;45.492;11.548;2023-07-29T12:09:45;4.90;;;3.03;;
31390;SDS011;18022;45.492;11.548;2023-07-29T12:12:11;5.93;;;3.25;;
31390;SDS011;18022;45.492;11.548;2023-07-29T12:14:37;6.63;;;3.10;;
31390;SDS011;18022;45.492;11.548;2023-07-29T12:17:04;6.32;;;3.03;;
31390;SDS011;18022;45.492;11.548;2023-07-29T12:19:32;4.72;;;3.13;;
31390;SDS011;18022;45.492;11.548;2023-07-29T12:22:00;5.28;;;2.88;;
31390;SDS011;18022;45.492;11.548;2023-07-29T12:24:30;7.45;;;3.03;;
31390;SDS011;18022;45.492;11.548;2023-07-29T12:26:57;5.88;;;2.72;;
31390;SDS011;18022;45.492;11.548;2023-07-29T12:29:23;7.70;;;3.10;;
31390;SDS011;18022;45.492;11.548;2023-07-29T12:31:49;3.95;;;2.60;;
31390;SDS011;18022;45.492;11.548;2023-07-29T12:34:22;5.35;;;3.00;;
31390;SDS011;18022;45.492;11.548;2023-07-29T12:36:50;3.60;;;3.03;;
31390;SDS011;18022;45.492;11.548;2023-07-29T12:39:20;6.95;;;3.63;;
31390;SDS011;18022;45.492;11.548;2023-07-29T12:41:58;4.57;;;3.03;;
31390;SDS011;18022;45.492;11.548;2023-07-29T12:44:26;4.70;;;3.08;;
31390;SDS011;18022;45.492;11.548;2023-07-29T12:46:55;5.35;;;3.50;;
31390;SDS011;18022;45.492;11.548;2023-07-29T12:49:21;5.60;;;3.00;;
31390;SDS011;18022;45.492;11.548;2023-07-29T12:51:47;3.50;;;3.08;;
31390;SDS011;18022;45.492;11.548;2023-07-29T12:54:13;7.47;;;2.95;;
31390;SDS011;18022;45.492;11.548;2023-07-29T12:56:39;4.80;;;3.10;;
31390;SDS011;18022;45.492;11.548;2023-07-29T12:59:04;4.97;;;3.30;;
31390;SDS011;18022;45.492;11.548;2023-07-29T13:01:30;7.32;;;3.08;;
31390;SDS011;18022;45.492;11.548;2023-07-29T13:03:56;8.32;;;3.08;;
31390;SDS011;18022;45.492;11.548;2023-07-29T13:06:22;5.00;;;3.13;;
31390;SDS011;18022;45.492;11.548;2023-07-29T13:08:48;2.83;;;2.60;;
31390;SDS011;18022;45.492;11.548;2023-07-29T13:11:14;10.55;;;2.80;;
31390;SDS011;18022;45.492;11.548;2023-07-29T13:13:41;4.50;;;3.13;;
31390;SDS011;18022;45.492;11.548;2023-07-29T13:16:07;3.40;;;2.80;;
31390;SDS011;18022;45.492;11.548;2023-07-29T13:18:33;4.40;;;3.15;;
31390;SDS011;18022;45.492;11.548;2023-07-29T13:20:59;6.15;;;3.53;;
31390;SDS011;18022;45.492;11.548;2023-07-29T13:23:25;9.40;;;3.17;;
31390;SDS011;18022;45.492;11.548;2023-07-29T13:25:52;4.15;;;2.95;;
31390;SDS011;18022;45.492;11.548;2023-07-29T13:28:17;5.22;;;3.30;;
31390;SDS011;18022;45.492;11.548;2023-07-29T13:30:44;3.80;;;2.90;;
31390;SDS011;18022;45.492;11.548;2023-07-29T13:33:10;14.20;;;3.40;;
31390;SDS011;18022;45.492;11.548;2023-07-29T13:35:36;3.63;;;3.00;;
31390;SDS011;18022;45.492;11.548;2023-07-29T13:38:01;4.07;;;2.88;;
31390;SDS011;18022;45.492;11.548;2023-07-29T13:40:27;3.67;;;3.28;;
31390;SDS011;18022;45.492;11.548;2023-07-29T13:42:53;8.43;;;3.20;;
31390;SDS011;18022;45.492;11.548;2023-07-29T13:45:19;4.65;;;3.10;;
31390;SDS011;18022;45.492;11.548;2023-07-29T13:47:45;5.55;;;3.17;;
31390;SDS011;18022;45.492;11.548;2023-07-29T13:50:11;5.63;;;2.90;;
31390;SDS011;18022;45.492;11.548;2023-07-29T13:52:37;4.72;;;3.15;;
31390;SDS011;18022;45.492;11.548;2023-07-29T13:55:03;4.63;;;2.95;;
31390;SDS011;18022;45.492;11.548;2023-07-29T13:57:30;5.07;;;3.17;;
31390;SDS011;18022;45.492;11.548;2023-07-29T13:59:56;4.22;;;2.70;;
31390;SDS011;18022;45.492;11.548;2023-07-29T14:02:22;4.50;;;3.20;;
31390;SDS011;18022;45.492;11.548;2023-07-29T14:04:48;5.30;;;3.00;;
31390;SDS011;18022;45.492;11.548;2023-07-29T14:07:14;5.32;;;3.00;;
31390;SDS011;18022;45.492;11.548;2023-07-29T14:09:39;4.05;;;2.75;;
31390;SDS011;18022;45.492;11.548;2023-07-29T14:12:05;4.00;;;2.63;;
31390;SDS011;18022;45.492;11.548;2023-07-29T14:14:31;6.90;;;3.78;;
31390;SDS011;18022;45.492;11.548;2023-07-29T14:16:57;5.78;;;3.08;;
31390;SDS011;18022;45.492;11.548;2023-07-29T14:19:23;5.43;;;2.80;;
31390;SDS011;18022;45.492;11.548;2023-07-29T14:21:49;3.55;;;3.25;;
31390;SDS011;18022;45.492;11.548;2023-07-29T14:24:15;4.78;;;3.10;;
31390;SDS011;18022;45.492;11.548;2023-07-29T14:26:41;3.40;;;2.80;;
31390;SDS011;18022;45.492;11.548;2023-07-29T14:29:07;3.33;;;2.60;;
31390;SDS011;18022;45.492;11.548;2023-07-29T14:31:33;7.68;;;3.17;;
31390;SDS011;18022;45.492;11.548;2023-07-29T14:33:58;6.03;;;3.30;;
31390;SDS011;18022;45.492;11.548;2023-07-29T14:36:24;5.65;;;3.22;;
31390;SDS011;18022;45.492;11.548;2023-07-29T14:38:51;5.38;;;3.28;;
31390;SDS011;18022;45.492;11.548;2023-07-29T14:41:16;10.35;;;2.90;;
31390;SDS011;18022;45.492;11.548;2023-07-29T14:43:42;4.35;;;3.05;;
31390;SDS011;18022;45.492;11.548;2023-07-29T14:46:08;3.67;;;3.22;;
31390;SDS011;18022;45.492;11.548;2023-07-29T14:48:34;4.55;;;3.08;;